Time;durP1;ratioP1;P1;durP2;ratioP2;P2;SDS_P1;SDS_P2;PMS_P1;PMS_P2;Temp;Humidity;BMP_temperature;BMP_pressure;BME280_temperature;BME280_humidity;BME280_pressure;Samples;Min_cycle;Max_cycle;Signal;HPM_P1;HPM_P2
2022/10/01 00:02:09;;;;;;;23.10;13.20;;;;;;;12.10;78.66;98798.56;105913;1276;99304;-64
2022/10/01 00:04:38;;;;;;;24.70;14.40;;;;;;;12.07;78.83;98794.34;105939;1276;100030;-64
2022/10/01 00:07:13;;;;;;;25.30;13.70;;;;;;;12.09;78.89;98801.31;105865;1276;113337;-64
2022/10/01 00:09:44;;;;;;;23.40;13.40;;;;;;;12.12;78.92;98800.94;105951;1276;99274;-65
2022/10/01 00:12:15;;;;;;;24.80;13.90;;;;;;;12.13;78.91;98800.98;105965;1276;108455;-66
2022/10/01 00:14:45;;;;;;;24.10;13.80;;;;;;;12.15;78.92;98799.03;105908;1276;99266;-64
2022/10/01 00:17:13;;;;;;;25.90;14.60;;;;;;;12.17;78.76;98789.11;105935;1276;99269;-65
2022/10/01 00:19:41;;;;;;;25.60;14.70;;;;;;;12.19;78.87;98782.22;105921;1277;113375;-65
2022/10/01 00:22:09;;;;;;;24.90;15.00;;;;;;;12.19;78.89;98783.80;105960;1277;99031;-65
2022/10/01 00:24:39;;;;;;;24.30;14.50;;;;;;;12.18;78.76;98776.23;105931;1276;109035;-66
2022/10/01 00:27:11;;;;;;;25.00;14.30;;;;;;;12.20;79.04;98770.34;105948;1276;97015;-66
2022/10/01 00:29:43;;;;;;;26.30;15.10;;;;;;;12.22;79.04;98773.38;105847;1277;96665;-65
2022/10/01 00:32:13;;;;;;;26.70;14.80;;;;;;;12.24;78.88;98772.55;105999;1276;112339;-65
2022/10/01 00:34:44;;;;;;;25.60;16.00;;;;;;;12.24;78.98;98772.56;106006;1276;96748;-64
2022/10/01 00:37:11;;;;;;;26.60;15.60;;;;;;;12.26;78.88;98780.55;105950;1276;108324;-65
2022/10/01 00:39:41;;;;;;;26.70;15.70;;;;;;;12.26;78.82;98781.25;105758;1277;97682;-64
2022/10/01 00:42:17;;;;;;;26.20;14.60;;;;;;;12.27;78.78;98789.35;107797;1276;97166;-65
2022/10/01 00:44:45;;;;;;;23.30;13.80;;;;;;;12.28;78.90;98780.44;107733;1276;112737;-65
2022/10/01 00:47:22;;;;;;;26.60;15.50;;;;;;;12.29;78.88;98777.27;107646;1276;97000;-66
2022/10/01 00:49:54;;;;;;;24.40;14.50;;;;;;;12.30;78.92;98772.70;107752;1276;108261;-65
2022/10/01 00:52:31;;;;;;;23.40;13.40;;;;;;;12.34;78.88;98772.89;106553;1276;99304;-64
2022/10/01 00:55:12;;;;;;;;;;;;;;;12.37;78.85;98774.83;106231;1276;99233;-66
2022/10/01 00:57:42;;;;;;;24.50;13.70;;;;;;;12.37;78.94;98774.09;105916;1276;112701;-64
2022/10/01 01:00:13;;;;;;;25.40;14.80;;;;;;;12.39;78.85;98770.38;105936;1276;99318;-65
2022/10/01 01:02:42;;;;;;;24.20;14.60;;;;;;;12.41;78.84;98755.63;106016;1276;107788;-64
2022/10/01 01:05:12;;;;;;;25.60;14.40;;;;;;;12.42;78.92;98761.91;105976;1276;99319;-67
2022/10/01 01:07:45;;;;;;;27.40;14.40;;;;;;;12.44;78.92;98769.46;105968;1276;99817;-63
2022/10/01 01:10:22;;;;;;;25.60;15.20;;;;;;;12.45;78.98;98769.34;105847;1276;112847;-64
2022/10/01 01:12:50;;;;;;;24.40;14.30;;;;;;;12.46;78.92;98770.86;106207;1276;99262;-65
2022/10/01 01:15:31;;;;;;;26.40;14.80;;;;;;;12.45;78.94;98770.71;105889;1276;108294;-62
2022/10/01 01:18:23;;;;;;;26.20;15.00;;;;;;;12.46;79.00;98771.20;105868;1276;99334;-65
2022/10/01 01:21:14;;;;;;;25.40;14.60;;;;;;;12.46;79.00;98769.56;105886;1276;99326;-65
2022/10/01 01:23:52;;;;;;;24.00;14.30;;;;;;;12.46;78.89;98760.02;105935;1276;113116;-63
2022/10/01 01:26:45;;;;;;;26.70;15.70;;;;;;;12.46;78.89;98756.48;105990;1276;99808;-67
2022/10/01 01:29:25;;;;;;;26.30;15.30;;;;;;;12.45;78.86;98747.31;106019;1276;105564;-65
2022/10/01 01:32:00;;;;;;;27.30;15.80;;;;;;;12.42;78.79;98746.86;105865;1276;99158;-65
2022/10/01 01:34:33;;;;;;;28.00;16.00;;;;;;;12.41;78.99;98752.64;105872;1277;99259;-66
2022/10/01 01:37:10;;;;;;;25.30;15.00;;;;;;;12.41;78.90;98758.29;105837;1277;112676;-65
2022/10/01 01:39:48;;;;;;;25.70;15.70;;;;;;;12.41;78.95;98764.57;105862;1277;96786;-60
2022/10/01 01:42:36;;;;;;;26.40;15.20;;;;;;;12.41;78.93;98770.76;105863;1277;106498;-65
2022/10/01 01:45:09;;;;;;;26.70;16.20;;;;;;;12.41;78.97;98774.83;105838;1277;99355;-65
2022/10/01 01:47:41;;;;;;;25.80;15.90;;;;;;;12.41;78.89;98767.73;105869;1277;96749;-66
2022/10/01 01:50:12;;;;;;;26.60;15.00;;;;;;;12.40;79.00;98768.51;105896;1276;112774;-66
2022/10/01 01:52:42;;;;;;;27.00;15.20;;;;;;;12.40;79.06;98772.77;105907;1276;99246;-65
2022/10/01 01:55:11;;;;;;;25.90;16.10;;;;;;;12.40;78.99;98774.38;105909;1276;107777;-65
2022/10/01 01:57:43;;;;;;;27.20;15.80;;;;;;;12.41;78.95;98775.06;105889;1276;100065;-64
2022/10/01 02:00:13;;;;;;;28.30;16.50;;;;;;;12.41;78.97;98780.20;105938;1276;98640;-65
2022/10/01 02:02:50;;;;;;;28.10;16.70;;;;;;;12.40;78.99;98786.64;105893;1277;111757;-63
2022/10/01 02:05:26;;;;;;;27.40;15.40;;;;;;;12.40;78.95;98792.70;105932;1276;99346;-64
2022/10/01 02:08:17;;;;;;;26.40;15.60;;;;;;;12.40;78.96;98795.05;105863;1276;107026;-63
2022/10/01 02:11:04;;;;;;;26.10;15.80;;;;;;;12.39;78.93;98795.61;105920;1276;99627;-65
2022/10/01 02:13:49;;;;;;;26.80;16.50;;;;;;;12.39;78.93;98789.05;105854;1276;99214;-64
2022/10/01 02:16:24;;;;;;;27.00;16.10;;;;;;;12.39;78.97;98779.66;105906;1276;113660;-65
2022/10/01 02:19:18;;;;;;;27.40;15.90;;;;;;;12.35;78.85;98777.62;106019;1276;99244;-64
2022/10/01 02:22:12;;;;;;;25.10;15.50;;;;;;;12.29;78.73;98777.65;105920;1276;108474;-65
2022/10/01 02:24:55;;;;;;;25.70;15.30;;;;;;;12.22;78.76;98775.70;105900;1276;99313;-64
2022/10/01 02:27:33;;;;;;;27.00;14.90;;;;;;;12.19;78.90;98779.14;105900;1275;98439;-65
2022/10/01 02:30:06;;;;;;;29.60;17.70;;;;;;;12.15;78.78;98784.84;105875;1276;113432;-66
2022/10/01 02:32:39;;;;;;;29.60;17.10;;;;;;;12.08;78.81;98785.93;105908;1276;99356;-64
2022/10/01 02:35:12;;;;;;;27.80;17.40;;;;;;;12.03;78.79;98786.92;105892;1276;107541;-66
2022/10/01 02:37:44;;;;;;;29.90;17.70;;;;;;;11.99;78.85;98792.55;105902;1276;99228;-66
2022/10/01 02:40:19;;;;;;;27.90;16.60;;;;;;;11.97;78.95;98791.64;105997;1276;99205;-67
2022/10/01 02:42:53;;;;;;;28.60;17.70;;;;;;;11.99;79.01;98793.97;105895;1276;113332;-64
2022/10/01 02:45:24;;;;;;;32.10;17.30;;;;;;;12.02;79.15;98791.07;105935;1276;99263;-62
2022/10/01 02:48:01;;;;;;;27.90;17.30;;;;;;;12.05;79.13;98791.29;105894;1276;108843;-63
2022/10/01 02:50:41;;;;;;;29.10;16.50;;;;;;;12.09;79.17;98794.58;105884;1276;99421;-68
2022/10/01 02:53:19;;;;;;;29.00;17.40;;;;;;;12.12;79.06;98789.55;105883;1276;100525;-62
2022/10/01 02:55:50;;;;;;;29.60;17.70;;;;;;;12.14;79.21;98787.94;106003;1276;114213;-63
2022/10/01 02:58:20;;;;;;;29.00;17.50;;;;;;;12.16;79.30;98786.16;105980;1276;99290;-65
2022/10/01 03:00:51;;;;;;;30.20;18.60;;;;;;;12.17;78.99;98788.27;105846;1276;108655;-68
2022/10/01 03:03:19;;;;;;;31.30;18.80;;;;;;;12.17;79.14;98789.65;105874;1275;99233;-66
2022/10/01 03:05:47;;;;;;;30.30;18.80;;;;;;;12.18;79.10;98796.81;105912;1275;99227;-65
2022/10/01 03:08:15;;;;;;;30.80;18.60;;;;;;;12.19;79.05;98792.98;105966;1276;113059;-67
2022/10/01 03:10:44;;;;;;;30.60;17.70;;;;;;;12.22;79.14;98785.54;105892;1276;97946;-63
2022/10/01 03:13:13;;;;;;;30.00;17.60;;;;;;;12.22;79.16;98779.97;105889;1276;108396;-65
2022/10/01 03:15:46;;;;;;;32.40;18.70;;;;;;;12.21;79.00;98779.58;105888;1276;99219;-64
2022/10/01 03:18:13;;;;;;;30.30;17.80;;;;;;;12.17;79.16;98774.66;105879;1276;99366;-65
2022/10/01 03:20:43;;;;;;;29.20;17.60;;;;;;;12.14;79.02;98770.51;105848;1276;113606;-64
2022/10/01 03:23:10;;;;;;;30.70;18.00;;;;;;;12.12;79.09;98774.79;105951;1276;99212;-62
2022/10/01 03:25:38;;;;;;;31.30;17.80;;;;;;;12.08;78.94;98770.63;105996;1276;108381;-65
2022/10/01 03:28:06;;;;;;;31.90;17.30;;;;;;;12.03;78.97;98769.49;105922;1276;99103;-65
2022/10/01 03:30:35;;;;;;;29.50;17.70;;;;;;;12.00;79.18;98772.95;105954;1276;99266;-61
2022/10/01 03:33:05;;;;;;;29.00;18.00;;;;;;;12.00;79.11;98773.67;105868;1276;113336;-65
2022/10/01 03:35:32;;;;;;;31.20;18.10;;;;;;;11.99;79.18;98770.70;105858;1276;99257;-66
2022/10/01 03:38:01;;;;;;;32.20;19.60;;;;;;;11.98;79.09;98773.63;105879;1276;108422;-66
2022/10/01 03:40:36;;;;;;;34.80;19.50;;;;;;;11.92;79.13;98773.54;105901;1276;98350;-65
2022/10/01 03:43:06;;;;;;;;;;;;;;;11.89;79.23;98771.31;105989;1276;99326;-65
2022/10/01 03:45:35;;;;;;;32.70;19.10;;;;;;;11.86;79.35;98774.55;105909;1276;113173;-65
2022/10/01 03:48:04;;;;;;;34.50;19.90;;;;;;;11.88;79.29;98771.90;105952;1276;99244;-65
2022/10/01 03:50:32;;;;;;;32.80;18.90;;;;;;;11.89;79.28;98772.31;105884;1276;108438;-65
2022/10/01 03:53:00;;;;;;;34.00;20.50;;;;;;;11.91;79.27;98765.81;105949;1276;99310;-66
2022/10/01 03:55:28;;;;;;;33.10;20.30;;;;;;;11.91;79.26;98758.71;104634;1276;1713261;-65
2022/10/01 03:57:57;;;;;;;31.90;19.30;;;;;;;11.87;79.18;98766.68;105870;1276;113334;-65
2022/10/01 04:00:26;;;;;;;31.70;19.40;;;;;;;11.87;79.33;98768.41;105887;1276;96921;-66
2022/10/01 04:02:54;;;;;;;33.30;19.60;;;;;;;11.89;79.35;98768.09;105865;1276;108379;-64
2022/10/01 04:05:24;;;;;;;33.40;20.30;;;;;;;11.90;79.26;98766.40;105882;1276;100361;-65
2022/10/01 04:07:53;;;;;;;31.90;19.00;;;;;;;11.91;79.35;98761.38;105916;1276;99207;-65
2022/10/01 04:10:23;;;;;;;35.40;20.20;;;;;;;11.90;79.29;98762.46;105903;1276;113490;-64
2022/10/01 04:12:51;;;;;;;34.50;19.90;;;;;;;11.91;79.46;98758.88;106012;1276;98599;-65
2022/10/01 04:15:23;;;;;;;32.80;19.20;;;;;;;11.90;79.28;98755.77;105936;1276;108435;-63
2022/10/01 04:17:51;;;;;;;31.20;18.60;;;;;;;11.86;79.17;98760.49;105910;1276;99333;-66
2022/10/01 04:20:21;;;;;;;31.80;18.00;;;;;;;11.83;79.20;98752.80;105970;1276;99241;-65
2022/10/01 04:22:49;;;;;;;31.40;18.60;;;;;;;11.77;79.23;98747.56;105955;1276;113401;-64
2022/10/01 04:25:18;;;;;;;29.80;17.90;;;;;;;11.70;79.00;98745.46;105962;1276;98504;-64
2022/10/01 04:28:06;;;;;;;32.40;18.80;;;;;;;11.63;79.01;98748.56;105951;1276;108319;-65
2022/10/01 04:30:39;;;;;;;30.20;17.90;;;;;;;11.57;79.19;98748.70;105981;1276;99300;-67
2022/10/01 04:33:13;;;;;;;31.90;18.30;;;;;;;11.54;79.11;98752.16;105962;1276;99322;-64
2022/10/01 04:35:43;;;;;;;32.00;17.80;;;;;;;11.52;79.31;98751.05;105986;1276;112731;-65
2022/10/01 04:38:16;;;;;;;31.60;18.80;;;;;;;11.53;79.38;98749.93;106009;1276;99262;-62
2022/10/01 04:40:44;;;;;;;29.30;17.70;;;;;;;11.54;79.40;98749.83;106001;1276;106721;-66
2022/10/01 04:43:12;;;;;;;30.50;18.30;;;;;;;11.56;79.59;98753.95;105974;1276;99442;-66
2022/10/01 04:45:41;;;;;;;33.00;18.00;;;;;;;11.58;79.47;98752.55;106027;1276;99220;-65
2022/10/01 04:48:09;;;;;;;31.00;18.10;;;;;;;11.59;79.50;98752.05;105890;1277;113413;-64
2022/10/01 04:50:37;;;;;;;29.80;17.90;;;;;;;11.59;79.41;98747.63;105949;1277;99336;-66
2022/10/01 04:53:05;;;;;;;30.00;17.50;;;;;;;11.58;79.39;98748.78;105898;1276;108351;-65
2022/10/01 04:55:33;;;;;;;29.20;16.30;;;;;;;11.57;79.37;98753.29;105923;1277;97772;-64
2022/10/01 04:58:02;;;;;;;28.80;16.90;;;;;;;11.58;79.47;98755.02;105966;1276;99105;-65
2022/10/01 05:00:30;;;;;;;28.60;16.80;;;;;;;11.60;79.70;98755.33;106058;1275;113317;-64
2022/10/01 05:03:00;;;;;;;28.80;17.00;;;;;;;11.64;79.70;98760.20;106045;1276;96683;-66
2022/10/01 05:05:31;;;;;;;29.10;17.20;;;;;;;11.67;79.51;98763.55;105874;1277;108431;-68
2022/10/01 05:08:01;;;;;;;27.00;16.00;;;;;;;11.69;79.67;98766.15;105980;1276;99279;-66
2022/10/01 05:10:30;;;;;;;26.40;17.00;;;;;;;11.72;79.52;98762.72;105809;1276;99183;-66
2022/10/01 05:13:00;;;;;;;28.90;16.20;;;;;;;11.75;79.77;98772.08;105879;1276;113274;-64
2022/10/01 05:15:30;;;;;;;27.80;15.50;;;;;;;11.78;79.76;98772.23;105909;1276;99362;-64
2022/10/01 05:17:59;;;;;;;28.90;15.80;;;;;;;11.80;79.74;98771.14;105854;1276;109076;-65
2022/10/01 05:20:30;;;;;;;29.00;17.00;;;;;;;11.82;79.74;98763.19;105828;1276;99199;-65
2022/10/01 05:22:57;;;;;;;28.00;15.20;;;;;;;11.85;79.76;98758.11;105976;1276;99329;-69
2022/10/01 05:25:26;;;;;;;27.50;16.50;;;;;;;11.87;79.68;98756.55;105914;1276;113389;-67
2022/10/01 05:28:04;;;;;;;26.70;16.20;;;;;;;11.89;79.73;98756.90;105976;1276;97013;-65
2022/10/01 05:30:34;;;;;;;26.10;15.60;;;;;;;11.91;79.77;98758.69;105955;1276;108750;-67
2022/10/01 05:33:05;;;;;;;27.70;15.40;;;;;;;11.94;79.83;98759.75;105994;1276;99255;-68
2022/10/01 05:35:33;;;;;;;26.80;15.20;;;;;;;11.96;79.82;98758.16;106013;1277;99309;-66
2022/10/01 05:38:02;;;;;;;25.30;14.90;;;;;;;11.97;79.80;98763.34;105991;1277;113174;-65
2022/10/01 05:40:30;;;;;;;27.30;16.10;;;;;;;12.00;79.84;98770.10;105965;1277;96704;-65
2022/10/01 05:43:03;;;;;;;26.00;15.10;;;;;;;12.02;79.76;98778.94;105977;1277;108588;-64
2022/10/01 05:45:32;;;;;;;26.30;15.50;;;;;;;12.04;79.77;98781.64;105998;1277;99252;-65
2022/10/01 05:48:05;;;;;;;34.60;20.40;;;;;;;12.05;79.91;98779.78;106014;1277;99264;-66
2022/10/01 05:50:39;;;;;;;37.10;22.20;;;;;;;12.07;79.88;98782.27;105996;1276;112875;-65
2022/10/01 05:53:13;;;;;;;41.90;25.90;;;;;;;12.09;79.87;98788.85;105988;1277;99104;-66
2022/10/01 05:55:41;;;;;;;38.90;23.40;;;;;;;12.12;79.90;98792.20;105965;1277;107797;-67
2022/10/01 05:58:14;;;;;;;37.40;22.50;;;;;;;12.14;79.85;98797.02;106007;1277;99260;-66
2022/10/01 06:00:43;;;;;;;34.60;21.20;;;;;;;12.16;79.84;98796.30;105974;1277;99286;-66
2022/10/01 06:03:13;;;;;;;35.40;21.00;;;;;;;12.17;79.88;98794.39;105993;1277;113345;-65
2022/10/01 06:05:43;;;;;;;34.70;22.20;;;;;;;12.19;79.89;98795.65;105955;1276;97799;-65
2022/10/01 06:08:13;;;;;;;33.00;19.90;;;;;;;12.21;79.86;98797.27;105945;1276;108397;-65
2022/10/01 06:10:41;;;;;;;32.90;19.40;;;;;;;12.24;79.92;98804.70;105967;1276;99256;-66
2022/10/01 06:13:15;;;;;;;31.20;18.90;;;;;;;12.25;79.72;98805.48;105884;1276;96634;-67
2022/10/01 06:15:45;;;;;;;31.00;17.50;;;;;;;12.27;79.84;98806.80;105939;1276;113370;-66
2022/10/01 06:18:13;;;;;;;31.80;17.50;;;;;;;12.29;79.88;98806.09;106684;1276;98712;-67
2022/10/01 06:20:42;;;;;;;31.60;17.90;;;;;;;12.29;79.85;98803.73;105925;1276;107007;-62
2022/10/01 06:23:14;;;;;;;32.80;17.20;;;;;;;12.31;79.89;98802.69;105988;1276;96634;-67
2022/10/01 06:25:44;;;;;;;29.70;17.60;;;;;;;12.33;79.91;98802.01;105976;1276;96543;-61
2022/10/01 06:28:13;;;;;;;32.20;19.00;;;;;;;12.35;79.88;98800.23;105922;1276;113495;-66
2022/10/01 06:30:44;;;;;;;28.70;16.70;;;;;;;12.37;79.90;98797.05;105852;1276;99231;-69
2022/10/01 06:33:16;;;;;;;30.20;17.90;;;;;;;12.39;79.97;98786.96;105821;1276;107642;-66
2022/10/01 06:35:49;;;;;;;31.10;18.30;;;;;;;12.41;80.01;98778.04;107584;1275;99307;-68
2022/10/01 06:38:19;;;;;;;29.80;17.80;;;;;;;12.44;79.92;98778.34;107744;1276;97378;-67
2022/10/01 06:40:55;;;;;;;30.40;18.20;;;;;;;12.44;79.78;98786.66;107685;1276;114882;-67
2022/10/01 06:43:25;;;;;;;31.20;18.80;;;;;;;12.47;79.95;98782.54;107685;1276;97003;-67
2022/10/01 06:45:54;;;;;;;31.70;17.60;;;;;;;12.47;79.81;98774.30;107592;1276;106332;-65
2022/10/01 06:48:22;;;;;;;31.30;18.80;;;;;;;12.54;79.77;98776.56;105961;1277;99237;-66
2022/10/01 06:50:56;;;;;;;28.60;17.60;;;;;;;12.59;79.81;98775.59;105949;1276;99980;-64
2022/10/01 06:53:28;;;;;;;27.20;16.30;;;;;;;12.59;79.55;98778.65;106010;1276;112792;-65
2022/10/01 06:56:04;;;;;;;29.70;17.80;;;;;;;12.54;79.51;98771.77;105935;1276;99270;-66
2022/10/01 06:58:35;;;;;;;30.10;17.50;;;;;;;12.52;79.61;98776.56;105890;1276;107718;-68
2022/10/01 07:01:03;;;;;;;29.40;17.40;;;;;;;12.51;79.69;98775.77;105897;1276;99269;-66
2022/10/01 07:03:33;;;;;;;28.90;17.30;;;;;;;12.51;79.68;98779.84;105843;1276;99179;-65
2022/10/01 07:06:07;;;;;;;29.10;17.00;;;;;;;12.51;79.79;98773.61;105950;1276;112957;-67
2022/10/01 07:08:37;;;;;;;27.90;16.70;;;;;;;12.57;79.89;98776.85;105931;1276;99349;-62
2022/10/01 07:11:07;;;;;;;30.40;16.80;;;;;;;12.62;79.89;98782.70;105920;1276;108341;-66
2022/10/01 07:13:37;;;;;;;27.10;16.40;;;;;;;12.64;79.93;98777.81;105850;1276;99321;-67
2022/10/01 07:16:07;;;;;;;26.30;14.40;;;;;;;12.70;79.97;98778.03;105898;1274;99335;-66
2022/10/01 07:18:37;;;;;;;26.20;13.60;;;;;;;12.74;79.87;98773.77;105896;1276;114021;-66
2022/10/01 07:21:05;;;;;;;25.30;14.20;;;;;;;12.76;79.68;98772.73;105878;1276;99338;-67
2022/10/01 07:23:33;;;;;;;24.00;14.10;;;;;;;12.76;79.75;98771.16;105865;1276;108444;-65
2022/10/01 07:26:08;;;;;;;25.10;13.80;;;;;;;12.77;79.81;98772.48;105845;1276;99336;-66
2022/10/01 07:28:35;;;;;;;24.40;14.20;;;;;;;12.83;79.84;98776.09;105971;1276;99216;-67
2022/10/01 07:31:10;;;;;;;25.10;14.60;;;;;;;12.86;79.97;98777.05;105890;1276;113390;-66
2022/10/01 07:33:40;;;;;;;24.60;14.50;;;;;;;12.90;80.02;98779.17;105859;1276;96874;-67
2022/10/01 07:36:12;;;;;;;24.60;14.80;;;;;;;12.97;80.17;98770.75;105853;1276;108758;-66
2022/10/01 07:38:42;;;;;;;26.60;14.90;;;;;;;13.07;80.16;98770.45;105890;1276;96537;-67
2022/10/01 07:41:16;;;;;;;23.90;14.40;;;;;;;13.17;80.21;98766.34;105974;1276;99260;-68
2022/10/01 07:43:47;;;;;;;23.50;13.30;;;;;;;13.27;80.29;98764.55;105930;1278;112707;-67
2022/10/01 07:46:17;;;;;;;25.30;14.70;;;;;;;13.36;80.26;98761.43;106011;1276;99307;-65
2022/10/01 07:48:50;;;;;;;24.80;14.50;;;;;;;13.47;80.27;98760.02;105990;1276;108020;-66
2022/10/01 07:51:20;;;;;;;26.70;15.30;;;;;;;13.58;80.23;98755.48;105902;1276;99209;-65
2022/10/01 07:53:49;;;;;;;25.70;14.20;;;;;;;13.66;80.18;98755.09;105903;1276;96616;-65
2022/10/01 07:56:22;;;;;;;26.20;14.70;;;;;;;13.73;80.23;98750.71;105933;1276;113846;-67
2022/10/01 07:58:56;;;;;;;24.80;14.60;;;;;;;13.81;80.29;98746.59;105999;1276;99296;-66
2022/10/01 08:01:27;;;;;;;23.30;13.30;;;;;;;13.89;80.21;98748.40;105977;1276;107704;-66
2022/10/01 08:03:54;;;;;;;23.00;12.80;;;;;;;13.96;80.33;98740.44;105971;1276;97964;-65
2022/10/01 08:06:25;;;;;;;24.10;14.20;;;;;;;14.07;80.26;98734.86;106024;1276;99214;-66
2022/10/01 08:08:53;;;;;;;24.20;14.20;;;;;;;14.16;80.31;98731.69;105976;1276;115544;-65
2022/10/01 08:11:23;;;;;;;24.70;13.50;;;;;;;14.24;80.25;98724.52;105956;1276;96646;-65
2022/10/01 08:13:56;;;;;;;21.80;11.80;;;;;;;14.31;80.18;98719.24;105953;1276;108464;-67
2022/10/01 08:16:27;;;;;;;22.70;12.40;;;;;;;14.40;80.12;98719.63;105879;1276;99293;-66
2022/10/01 08:18:58;;;;;;;21.30;11.70;;;;;;;14.52;80.20;98718.52;105699;1276;99249;-68
2022/10/01 08:21:29;;;;;;;20.00;10.60;;;;;;;14.61;80.13;98719.82;105865;1276;113277;-66
2022/10/01 08:24:06;;;;;;;;;;;;;;;14.74;80.10;98711.65;106004;1276;96650;-66
2022/10/01 08:26:34;;;;;;;18.20;9.00;;;;;;;14.85;80.11;98711.89;105909;1276;108423;-64
2022/10/01 08:29:02;;;;;;;15.20;7.50;;;;;;;15.01;79.90;98704.96;105935;1276;99286;-65
2022/10/01 08:31:31;;;;;;;15.60;7.70;;;;;;;15.21;79.93;98702.34;105988;1276;99217;-66
2022/10/01 08:34:02;;;;;;;17.00;8.00;;;;;;;15.35;79.92;98696.89;105727;1276;113385;-66
2022/10/01 08:36:34;;;;;;;12.40;6.50;;;;;;;15.47;79.96;98698.89;105770;1278;99364;-66
2022/10/01 08:39:03;;;;;;;14.40;6.90;;;;;;;15.64;79.88;98696.71;105968;1276;108416;-65
2022/10/01 08:42:06;;;;;;;15.90;7.30;;;;;;;15.81;79.96;98700.92;105950;1276;99245;-65
2022/10/01 08:44:45;;;;;;;14.60;7.30;;;;;;;15.99;79.86;98704.48;105930;1276;99235;-82
2022/10/01 08:47:26;;;;;;;15.80;7.30;;;;;;;16.08;79.91;98703.41;106029;1276;111756;-67
2022/10/01 08:50:07;;;;;;;12.90;6.40;;;;;;;16.13;79.84;98698.24;106036;1276;99231;-67
2022/10/01 08:52:49;;;;;;;17.00;8.70;;;;;;;16.16;79.98;98697.63;105786;1276;107798;-65
2022/10/01 08:55:25;;;;;;;14.90;6.50;;;;;;;16.16;79.87;98693.27;107804;1276;97251;-65
2022/10/01 08:58:00;;;;;;;10.90;5.50;;;;;;;16.15;79.88;98694.96;107803;1276;97128;-65
2022/10/01 09:00:32;;;;;;;10.90;5.40;;;;;;;16.13;79.67;98696.48;106118;1278;113295;-64
2022/10/01 09:03:07;;;;;;;11.60;5.30;;;;;;;16.10;79.69;98689.64;107642;1276;97306;-66
2022/10/01 09:06:02;;;;;;;8.80;4.60;;;;;;;16.08;79.57;98691.08;106876;1276;107563;-65
2022/10/01 09:08:59;;;;;;;9.90;4.60;;;;;;;16.07;79.72;98686.38;105933;1276;99356;-64
2022/10/01 09:11:47;;;;;;;8.00;4.30;;;;;;;15.99;79.32;98692.82;105863;1276;99235;-65
2022/10/01 09:14:25;;;;;;;7.00;4.00;;;;;;;15.90;79.39;98694.62;105810;1276;113963;-66
2022/10/01 09:17:19;;;;;;;10.30;4.60;;;;;;;15.88;79.66;98693.98;105883;1276;100053;-65
2022/10/01 09:20:05;;;;;;;7.20;4.10;;;;;;;15.89;79.55;98687.75;105556;1276;108592;-65
2022/10/01 09:22:43;;;;;;;6.40;3.70;;;;;;;15.93;79.62;98688.64;106542;1276;99249;-66
2022/10/01 09:25:29;;;;;;;10.30;4.00;;;;;;;15.96;79.50;98685.84;105865;1276;98826;-67
2022/10/01 09:28:21;;;;;;;7.00;4.30;;;;;;;15.98;79.35;98675.47;105900;1276;113325;-65
2022/10/01 09:31:18;;;;;;;8.00;4.40;;;;;;;16.00;79.28;98673.14;105822;1277;96653;-65
2022/10/01 09:34:03;;;;;;;6.10;3.40;;;;;;;16.00;79.32;98672.00;105843;1278;108532;-66
2022/10/01 09:36:59;;;;;;;8.50;4.50;;;;;;;16.00;79.33;98669.12;105935;1276;99212;-64
2022/10/01 09:39:39;;;;;;;4.70;3.30;;;;;;;16.00;79.13;98669.48;106067;1276;99188;-65
2022/10/01 09:42:08;;;;;;;6.70;3.50;;;;;;;16.01;79.13;98669.92;105949;1276;112733;-65
2022/10/01 09:44:38;;;;;;;5.50;3.20;;;;;;;16.02;79.05;98671.25;105880;1276;99215;-65
2022/10/01 09:47:18;;;;;;;8.50;3.40;;;;;;;16.04;79.22;98668.24;105878;1276;108359;-65
2022/10/01 09:49:48;;;;;;;5.20;3.20;;;;;;;16.10;79.23;98664.56;105811;1276;99657;-66
2022/10/01 09:52:25;;;;;;;3.90;3.30;;;;;;;16.17;79.15;98661.31;107037;1276;97439;-68
2022/10/01 09:55:03;;;;;;;7.80;3.60;;;;;;;16.28;79.05;98655.78;105949;1276;112770;-66
2022/10/01 09:58:05;;;;;;;4.40;3.00;;;;;;;16.42;79.03;98653.95;105944;1276;99334;-66
2022/10/01 10:00:39;;;;;;;6.80;3.30;;;;;;;16.53;79.09;98647.83;105702;1279;109219;-67
2022/10/01 10:03:07;;;;;;;5.10;2.90;;;;;;;16.57;78.95;98646.50;105905;1276;99427;-67
2022/10/01 10:05:45;;;;;;;4.40;3.20;;;;;;;16.59;78.91;98638.46;105924;1276;99324;-66
2022/10/01 10:08:34;;;;;;;6.90;3.60;;;;;;;16.61;78.91;98633.73;105890;1278;112528;-66
2022/10/01 10:11:10;;;;;;;3.50;2.70;;;;;;;16.62;78.94;98628.78;105960;1276;96687;-65
2022/10/01 10:13:42;;;;;;;;;;;;;;;16.64;78.90;98632.20;106041;1278;107722;-67
2022/10/01 10:16:28;;;;;;;3.90;2.90;;;;;;;16.64;78.76;98631.88;105816;1278;99234;-65
2022/10/01 10:19:03;;;;;;;5.40;2.70;;;;;;;16.66;78.72;98631.21;106104;1276;99248;-65
2022/10/01 10:21:33;;;;;;;3.40;2.60;;;;;;;16.67;78.61;98625.23;105969;1276;113564;-67
2022/10/01 10:24:22;;;;;;;3.60;2.60;;;;;;;16.68;78.76;98624.65;105923;1276;99328;-67
2022/10/01 10:27:01;;;;;;;5.20;2.60;;;;;;;16.68;78.80;98622.63;105868;1277;108537;-66
2022/10/01 10:29:36;;;;;;;5.00;2.70;;;;;;;16.66;78.63;98617.82;105842;1279;96629;-66
2022/10/01 10:32:27;;;;;;;3.00;2.50;;;;;;;16.65;78.45;98612.25;105906;1279;99353;-67
2022/10/01 10:35:03;;;;;;;4.00;3.00;;;;;;;16.65;78.48;98605.98;105864;1278;112738;-65
2022/10/01 10:37:43;;;;;;;5.60;3.40;;;;;;;16.66;78.42;98603.76;105814;1278;99321;-67
2022/10/01 10:40:20;;;;;;;5.20;2.80;;;;;;;16.67;78.45;98597.35;105942;1276;107860;-69
2022/10/01 10:42:59;;;;;;;3.90;2.60;;;;;;;16.67;78.45;98589.84;105940;1276;99252;-68
2022/10/01 10:45:38;;;;;;;4.10;2.80;;;;;;;16.67;78.41;98586.38;105884;1276;99378;-68
2022/10/01 10:48:16;;;;;;;5.70;3.10;;;;;;;16.66;78.29;98581.27;105834;1276;113204;-66
2022/10/01 10:50:46;;;;;;;3.80;2.70;;;;;;;16.64;78.19;98581.00;106378;1276;99339;-68
2022/10/01 10:53:23;;;;;;;5.30;3.30;;;;;;;16.62;78.11;98580.88;105839;1276;108433;-68
2022/10/01 10:55:57;;;;;;;3.90;2.70;;;;;;;16.60;78.16;98572.12;105875;1276;99397;-67
2022/10/01 10:58:33;;;;;;;3.50;2.90;;;;;;;16.58;78.32;98568.55;105961;1276;97790;-67
2022/10/01 11:01:18;;;;;;;5.70;2.90;;;;;;;16.56;77.88;98568.91;105949;1276;112760;-67
2022/10/01 11:03:54;;;;;;;4.50;2.90;;;;;;;16.56;77.94;98558.81;105903;1276;99329;-69
2022/10/01 11:06:24;;;;;;;5.20;3.10;;;;;;;16.55;77.86;98559.45;105875;1276;109286;-68
2022/10/01 11:09:06;;;;;;;7.10;3.40;;;;;;;16.54;78.00;98560.34;105711;1276;99376;-70
2022/10/01 11:12:04;;;;;;;6.30;3.20;;;;;;;16.55;77.84;98557.96;105709;1276;99389;-69
2022/10/01 11:15:01;;;;;;;4.80;2.70;;;;;;;16.57;77.77;98549.39;105690;1276;112800;-69
2022/10/01 11:17:56;;;;;;;4.70;3.20;;;;;;;16.59;77.85;98541.64;105611;1276;97963;-69
2022/10/01 11:20:40;;;;;;;5.70;3.10;;;;;;;16.61;77.54;98539.23;105740;1276;107752;-68
2022/10/01 11:23:32;;;;;;;3.50;2.70;;;;;;;16.65;77.82;98533.14;105869;1276;99335;-68
2022/10/01 11:26:16;;;;;;;4.40;3.10;;;;;;;16.66;77.93;98529.14;105977;1276;99302;-68
2022/10/01 11:29:10;;;;;;;6.80;3.30;;;;;;;16.69;77.78;98528.61;105775;1276;112760;-69
2022/10/01 11:32:18;;;;;;;14.30;3.50;;;;;;;16.68;77.63;98525.05;106426;1276;99743;-70
2022/10/01 11:35:02;;;;;;;4.80;3.20;;;;;;;16.67;77.78;98517.47;106342;1276;107826;-69
2022/10/01 11:38:18;;;;;;;4.50;3.10;;;;;;;16.67;77.67;98515.83;106440;1276;99315;-70
2022/10/01 11:40:54;;;;;;;7.50;3.20;;;;;;;16.69;77.40;98512.86;106743;1276;99265;-68
2022/10/01 11:43:43;;;;;;;5.10;3.20;;;;;;;16.68;77.48;98517.20;105839;1276;113610;-68
2022/10/01 11:47:04;;;;;;;6.10;3.40;;;;;;;16.66;77.43;98512.60;106002;1276;98086;-68